createdAt,value
2023-09-04T00:01:50.468Z,11.04
2023-09-04T00:04:36.138Z,11.38
2023-09-04T00:07:21.747Z,11.06
2023-09-04T00:10:07.467Z,11.49
2023-09-04T00:12:52.789Z,11.41
2023-09-04T00:15:38.979Z,11.96
2023-09-04T00:18:25.392Z,11.22
2023-09-04T00:21:11.115Z,11.94
2023-09-04T00:23:56.881Z,11.08
2023-09-04T00:26:42.130Z,11.27
2023-09-04T00:29:27.698Z,11.04
2023-09-04T00:32:13.286Z,11.28
2023-09-04T00:34:58.607Z,10.76
2023-09-04T00:37:44.143Z,11.38
2023-09-04T00:40:29.966Z,11.00
2023-09-04T00:43:15.716Z,11.50
2023-09-04T00:46:01.235Z,10.48
2023-09-04T00:48:47.319Z,10.65
2023-09-04T00:51:33.237Z,10.92
2023-09-04T00:54:18.934Z,10.89
2023-09-04T00:57:06.393Z,11.04
2023-09-04T00:59:52.075Z,10.81
2023-09-04T01:02:39.552Z,11.33
2023-09-04T01:05:25.154Z,11.16
2023-09-04T01:08:10.399Z,10.63
2023-09-04T01:11:13.441Z,11.19
2023-09-04T01:14:00.433Z,10.28
2023-09-04T01:16:47.083Z,10.88
2023-09-04T01:19:33.173Z,10.45
2023-09-04T01:22:18.980Z,10.96
2023-09-04T01:25:04.316Z,10.98
2023-09-04T01:27:59.169Z,11.23
2023-09-04T01:31:17.125Z,11.20
2023-09-04T01:34:16.946Z,10.84
2023-09-04T01:37:02.698Z,10.68
2023-09-04T01:39:49.683Z,10.32
2023-09-04T01:42:35.772Z,10.93
2023-09-04T01:45:21.019Z,10.42
2023-09-04T01:48:07.128Z,10.53
2023-09-04T01:50:54.241Z,10.41
2023-09-04T01:53:39.940Z,10.55
2023-09-04T01:56:25.574Z,9.99
2023-09-04T01:59:11.052Z,10.49
2023-09-04T02:01:56.558Z,9.93
2023-09-04T02:04:42.204Z,10.42
2023-09-04T02:07:27.802Z,10.25
2023-09-04T02:10:13.208Z,10.78
2023-09-04T02:12:59.648Z,10.63
2023-09-04T02:15:46.732Z,9.95
2023-09-04T02:18:32.833Z,9.38
2023-09-04T02:21:18.471Z,10.36
2023-09-04T02:24:04.010Z,10.34
2023-09-04T02:26:49.484Z,10.22
2023-09-04T02:29:35.052Z,10.25
2023-09-04T02:32:20.319Z,9.61
2023-09-04T02:35:06.583Z,9.55
2023-09-04T02:37:52.006Z,9.97
2023-09-04T02:40:37.289Z,10.04
2023-09-04T02:43:22.606Z,9.78
2023-09-04T02:46:08.465Z,9.77
2023-09-04T02:48:53.893Z,9.67
2023-09-04T02:51:39.912Z,9.65
2023-09-04T02:54:25.265Z,9.09
2023-09-04T02:57:11.076Z,9.53
2023-09-04T02:59:56.417Z,9.15
2023-09-04T03:02:43.004Z,9.55
2023-09-04T03:05:28.993Z,9.86
2023-09-04T03:08:16.456Z,9.27
2023-09-04T03:11:02.687Z,9.26
2023-09-04T03:13:48.201Z,9.35
2023-09-04T03:16:33.864Z,9.73
2023-09-04T03:19:19.406Z,9.38
2023-09-04T03:22:05.131Z,9.26
2023-09-04T03:24:50.695Z,10.10
2023-09-04T03:27:36.249Z,9.70
2023-09-04T03:30:22.427Z,9.59
2023-09-04T03:33:08.128Z,9.66
2023-09-04T03:35:53.630Z,9.73
2023-09-04T03:38:39.805Z,10.10
2023-09-04T03:41:25.454Z,9.51
2023-09-04T03:44:10.627Z,10.00
2023-09-04T03:46:55.859Z,9.61
2023-09-04T03:49:41.438Z,9.40
2023-09-04T03:52:26.912Z,9.41
2023-09-04T03:55:13.030Z,9.56
2023-09-04T03:57:58.567Z,9.31
2023-09-04T04:00:44.386Z,9.56
2023-09-04T04:03:30.758Z,9.55
2023-09-04T04:06:16.450Z,9.88
2023-09-04T04:09:02.363Z,9.56
2023-09-04T04:11:48.074Z,9.83
2023-09-04T04:14:33.613Z,9.98
2023-09-04T04:17:18.915Z,9.25
2023-09-04T04:20:05.272Z,9.10
2023-09-04T04:22:50.922Z,9.30
2023-09-04T04:25:36.815Z,9.56
2023-09-04T04:28:23.918Z,9.84
2023-09-04T04:31:10.132Z,9.14
2023-09-04T04:33:56.652Z,9.15
2023-09-04T04:36:42.376Z,9.26
2023-09-04T04:39:28.119Z,9.39
2023-09-04T04:42:15.570Z,9.85
2023-09-04T04:45:00.876Z,9.00
2023-09-04T04:47:46.193Z,9.63
2023-09-04T04:50:31.881Z,8.89
2023-09-04T04:53:17.220Z,9.45
2023-09-04T04:56:04.930Z,9.35
2023-09-04T04:58:50.231Z,9.22
2023-09-04T05:01:36.149Z,9.16
2023-09-04T05:04:21.706Z,9.33
2023-09-04T05:07:07.167Z,9.32
2023-09-04T05:09:54.093Z,9.43
2023-09-04T05:12:40.042Z,9.31
2023-09-04T05:15:25.234Z,9.24
2023-09-04T05:18:11.696Z,8.93
2023-09-04T05:20:59.219Z,9.25
2023-09-04T05:23:44.474Z,8.67
2023-09-04T05:26:30.126Z,9.92
2023-09-04T05:29:15.394Z,9.56
2023-09-04T05:32:00.751Z,9.48
2023-09-04T05:34:46.192Z,9.44
2023-09-04T05:37:32.472Z,9.50
2023-09-04T05:40:17.920Z,9.85
2023-09-04T05:43:03.941Z,9.22
2023-09-04T05:45:49.962Z,10.10
2023-09-04T05:48:35.404Z,10.40
2023-09-04T05:51:20.630Z,10.07
2023-09-04T05:54:06.146Z,9.67
2023-09-04T05:56:51.783Z,9.60
2023-09-04T05:59:37.268Z,9.79
2023-09-04T06:02:22.549Z,10.11
2023-09-04T06:05:08.295Z,10.37
2023-09-04T06:07:54.041Z,10.48
2023-09-04T06:10:39.800Z,10.15
2023-09-04T06:13:25.347Z,10.63
2023-09-04T06:16:10.886Z,10.86
2023-09-04T06:18:56.599Z,11.24
2023-09-04T06:21:42.146Z,11.78
2023-09-04T06:24:27.729Z,12.46
2023-09-04T06:27:13.297Z,11.87
2023-09-04T06:29:58.515Z,12.43
2023-09-04T06:32:44.289Z,12.74
2023-09-04T06:35:30.283Z,12.27
2023-09-04T06:38:15.711Z,12.66
2023-09-04T06:41:01.288Z,12.48
2023-09-04T06:43:46.860Z,12.24
2023-09-04T06:46:33.263Z,12.10
2023-09-04T06:49:18.722Z,12.35
2023-09-04T06:52:04.397Z,12.43
2023-09-04T06:54:49.740Z,12.89
2023-09-04T06:57:34.982Z,12.16
2023-09-04T07:00:21.685Z,12.33
2023-09-04T07:03:07.398Z,12.79
2023-09-04T07:05:53.141Z,12.19
2023-09-04T07:08:38.487Z,12.24
2023-09-04T07:11:24.444Z,12.88
2023-09-04T07:14:09.729Z,12.33
2023-09-04T07:17:07.572Z,12.46
2023-09-04T07:19:53.977Z,12.01
2023-09-04T07:22:39.928Z,12.29
2023-09-04T07:25:25.306Z,12.53
2023-09-04T07:28:10.679Z,13.22
2023-09-04T07:31:16.645Z,13.51
2023-09-04T07:34:02.887Z,12.51
2023-09-04T07:36:48.421Z,12.86
2023-09-04T07:39:33.903Z,12.71
2023-09-04T07:42:19.625Z,13.14
2023-09-04T07:45:05.422Z,13.21
2023-09-04T07:47:51.010Z,13.63
2023-09-04T07:50:36.297Z,14.03
2023-09-04T07:53:22.844Z,13.42
2023-09-04T07:56:10.965Z,13.48
2023-09-04T07:58:56.076Z,13.52
2023-09-04T08:01:41.448Z,14.06
2023-09-04T08:04:27.124Z,14.04
2023-09-04T08:07:12.505Z,14.17
2023-09-04T08:09:57.930Z,14.68
2023-09-04T08:12:43.787Z,14.59
2023-09-04T08:15:28.985Z,14.99
2023-09-04T08:18:14.515Z,14.29
2023-09-04T08:20:59.836Z,14.28
2023-09-04T08:23:45.786Z,14.91
2023-09-04T08:26:31.306Z,14.65
2023-09-04T08:29:16.714Z,15.09
2023-09-04T08:32:02.290Z,14.13
2023-09-04T08:34:47.883Z,14.64
2023-09-04T08:37:33.221Z,14.72
2023-09-04T08:40:18.567Z,14.36
2023-09-04T08:43:05.309Z,15.02
2023-09-04T08:45:51.306Z,14.80
2023-09-04T08:48:40.844Z,15.29
2023-09-04T08:51:27.584Z,15.02
2023-09-04T08:54:13.364Z,15.55
2023-09-04T08:56:59.166Z,15.69
2023-09-04T08:59:44.589Z,16.05
2023-09-04T09:02:31.004Z,16.75
2023-09-04T09:05:18.274Z,16.34
2023-09-04T09:08:05.466Z,17.03
2023-09-04T09:10:52.693Z,16.37
2023-09-04T09:13:38.092Z,17.33
2023-09-04T09:16:23.466Z,16.80
2023-09-04T09:19:10.224Z,16.67
2023-09-04T09:22:09.340Z,16.71
2023-09-04T09:25:00.779Z,17.02
2023-09-04T09:27:46.314Z,17.06
2023-09-04T09:30:37.985Z,17.71
2023-09-04T09:33:23.463Z,17.37
2023-09-04T09:36:17.957Z,17.45
2023-09-04T09:39:05.069Z,17.23
2023-09-04T09:41:50.410Z,17.22
2023-09-04T09:44:35.988Z,17.41
2023-09-04T09:47:22.382Z,18.08
2023-09-04T09:50:09.021Z,17.57
2023-09-04T09:53:01.608Z,17.84
2023-09-04T09:55:49.676Z,18.60
2023-09-04T09:58:35.081Z,18.62
2023-09-04T10:01:20.407Z,17.93
2023-09-04T10:04:07.378Z,18.67
2023-09-04T10:06:54.426Z,18.69
2023-09-04T10:09:45.994Z,18.34
2023-09-04T10:12:42.046Z,19.12
2023-09-04T10:15:28.711Z,18.52
2023-09-04T10:18:47.545Z,19.03
2023-09-04T10:21:41.469Z,18.94
2023-09-04T10:24:55.111Z,19.57
2023-09-04T10:27:45.525Z,18.85
2023-09-04T10:30:37.105Z,19.68
2023-09-04T10:33:22.651Z,19.53
2023-09-04T10:36:09.907Z,19.53
2023-09-04T10:38:55.963Z,18.61
2023-09-04T10:41:42.047Z,19.20
2023-09-04T10:44:45.775Z,19.46
2023-09-04T10:47:44.857Z,20.11
2023-09-04T10:50:34.952Z,19.65
2023-09-04T10:53:30.826Z,19.83
2023-09-04T10:59:27.069Z,19.86
2023-09-04T11:02:26.476Z,19.62
2023-09-04T11:05:11.909Z,19.80
2023-09-04T11:08:26.628Z,20.17
2023-09-04T11:11:12.225Z,20.16
2023-09-04T11:14:03.936Z,20.54
2023-09-04T11:16:50.776Z,19.79
2023-09-04T11:19:36.234Z,20.01
2023-09-04T11:22:23.896Z,20.72
2023-09-04T11:25:09.085Z,20.75
2023-09-04T11:27:54.381Z,20.61
2023-09-04T11:30:40.495Z,20.96
2023-09-04T11:33:30.266Z,20.20
2023-09-04T11:36:16.390Z,20.31
2023-09-04T11:39:06.027Z,20.63
2023-09-04T11:41:51.230Z,20.34
2023-09-04T11:44:36.740Z,20.13
2023-09-04T11:47:23.454Z,20.24
2023-09-04T11:50:15.298Z,20.47
2023-09-04T11:53:01.166Z,21.07
2023-09-04T11:55:52.862Z,20.41
2023-09-04T11:58:40.571Z,20.41
2023-09-04T12:01:27.081Z,20.54
2023-09-04T12:04:12.414Z,20.49
2023-09-04T12:06:57.726Z,20.37
2023-09-04T12:09:43.377Z,20.44
2023-09-04T12:12:28.788Z,20.96
2023-09-04T12:15:26.799Z,20.52
2023-09-04T12:18:12.189Z,20.70
2023-09-04T12:20:57.980Z,20.88
2023-09-04T12:23:47.629Z,21.41
2023-09-04T12:26:33.032Z,20.79
2023-09-04T12:29:21.697Z,20.64
2023-09-04T12:32:07.066Z,21.15
2023-09-04T12:35:00.652Z,21.82
2023-09-04T12:37:46.572Z,19.81
2023-09-04T12:40:32.176Z,21.25
2023-09-04T12:43:17.475Z,22.16
2023-09-04T12:46:02.891Z,22.45
2023-09-04T12:48:49.831Z,22.05
2023-09-04T12:51:35.279Z,21.72
2023-09-04T12:54:20.704Z,21.38
2023-09-04T12:57:06.348Z,21.33
2023-09-04T12:59:52.126Z,21.39
2023-09-04T13:02:38.029Z,21.66
2023-09-04T13:05:25.114Z,21.52
2023-09-04T13:08:10.531Z,20.23
2023-09-04T13:10:56.048Z,21.19
2023-09-04T13:13:42.971Z,22.02
2023-09-04T13:16:28.347Z,21.91
2023-09-04T13:19:13.726Z,21.82
2023-09-04T13:21:59.239Z,21.81
2023-09-04T13:24:44.657Z,21.67
2023-09-04T13:27:30.123Z,21.93
2023-09-04T13:30:15.636Z,21.63
2023-09-04T13:33:01.193Z,21.90
2023-09-04T13:35:46.960Z,22.09
2023-09-04T13:38:32.430Z,21.63
2023-09-04T13:41:20.615Z,22.04
2023-09-04T13:44:05.925Z,21.91
2023-09-04T13:46:51.428Z,21.97
2023-09-04T13:49:37.333Z,21.80
2023-09-04T13:52:24.940Z,22.06
2023-09-04T13:55:10.678Z,22.04
2023-09-04T13:57:56.177Z,21.52
2023-09-04T14:00:42.164Z,21.22
2023-09-04T14:03:28.044Z,21.76
2023-09-04T14:06:13.760Z,22.23
2023-09-04T14:08:59.587Z,21.93
2023-09-04T14:11:44.862Z,21.89
2023-09-04T14:14:31.092Z,21.71
2023-09-04T14:17:16.779Z,19.29
2023-09-04T14:20:02.291Z,21.99
2023-09-04T14:22:47.829Z,21.86
2023-09-04T14:25:33.599Z,22.08
2023-09-04T14:28:18.809Z,22.22
2023-09-04T14:31:04.638Z,21.92
2023-09-04T14:33:50.014Z,21.92
2023-09-04T14:36:35.948Z,22.06
2023-09-04T14:39:21.613Z,22.13
2023-09-04T14:42:07.719Z,21.99
2023-09-04T14:44:53.290Z,22.00
2023-09-04T14:47:38.934Z,22.07
2023-09-04T14:50:27.566Z,21.79
2023-09-04T14:53:12.819Z,21.71
2023-09-04T14:55:58.959Z,22.29
2023-09-04T14:58:44.677Z,21.20
2023-09-04T15:01:30.088Z,21.71
2023-09-04T15:04:15.387Z,21.68
2023-09-04T15:07:00.734Z,22.05
2023-09-04T15:09:46.345Z,22.21
2023-09-04T15:12:32.039Z,21.98
2023-09-04T15:15:17.547Z,21.44
2023-09-04T15:18:03.134Z,21.28
2023-09-04T15:20:51.594Z,21.57
2023-09-04T15:23:37.244Z,21.76
2023-09-04T15:26:22.753Z,21.90
2023-09-04T15:29:07.998Z,21.86
2023-09-04T15:31:53.909Z,22.01
2023-09-04T15:34:39.597Z,21.86
2023-09-04T15:37:24.940Z,21.99
2023-09-04T15:40:10.297Z,21.64
2023-09-04T15:42:56.076Z,21.75
2023-09-04T15:45:41.541Z,21.80
2023-09-04T15:48:27.250Z,21.62
2023-09-04T15:51:13.075Z,21.92
2023-09-04T15:53:58.809Z,21.86
2023-09-04T15:56:44.442Z,21.64
2023-09-04T15:59:31.883Z,21.32
2023-09-04T16:02:17.568Z,21.43
2023-09-04T16:05:03.318Z,21.43
2023-09-04T16:07:48.685Z,21.52
2023-09-04T16:10:34.090Z,21.28
2023-09-04T16:13:20.958Z,21.64
2023-09-04T16:16:06.320Z,21.43
2023-09-04T16:18:51.758Z,21.12
2023-09-04T16:21:37.172Z,21.50
2023-09-04T16:24:22.798Z,21.27
2023-09-04T16:27:08.022Z,21.21
2023-09-04T16:29:53.936Z,20.54
2023-09-04T16:32:40.058Z,20.80
2023-09-04T16:35:25.636Z,21.13
2023-09-04T16:38:11.355Z,21.07
2023-09-04T16:40:56.766Z,20.74
2023-09-04T16:43:42.513Z,20.65
2023-09-04T16:46:28.039Z,20.96
2023-09-04T16:49:13.366Z,20.59
2023-09-04T16:52:00.735Z,20.45
2023-09-04T16:54:47.876Z,20.55
2023-09-04T16:57:33.280Z,20.31
2023-09-04T17:00:19.070Z,19.87
2023-09-04T17:03:04.260Z,20.07
2023-09-04T17:05:50.007Z,19.71
2023-09-04T17:08:35.398Z,20.14
2023-09-04T17:11:20.951Z,20.01
2023-09-04T17:14:07.343Z,19.88
2023-09-04T17:16:52.881Z,19.81
2023-09-04T17:19:38.412Z,19.72
2023-09-04T17:22:24.064Z,19.79
2023-09-04T17:25:09.530Z,19.66
2023-09-04T17:27:55.024Z,19.23
2023-09-04T17:30:42.700Z,18.49
2023-09-04T17:33:28.018Z,18.06
2023-09-04T17:36:13.406Z,18.24
2023-09-04T17:38:58.732Z,18.80
2023-09-04T17:41:44.328Z,18.52
2023-09-04T17:44:29.883Z,19.16
2023-09-04T17:47:15.384Z,19.44
2023-09-04T17:50:01.057Z,19.17
2023-09-04T17:52:46.272Z,19.44
2023-09-04T17:55:32.206Z,19.60
2023-09-04T17:58:17.862Z,19.57
2023-09-04T18:01:03.381Z,19.72
2023-09-04T18:03:48.710Z,19.33
2023-09-04T18:06:35.319Z,19.29
2023-09-04T18:09:21.172Z,19.06
2023-09-04T18:12:07.146Z,19.33
2023-09-04T18:14:52.428Z,19.22
2023-09-04T18:17:38.006Z,19.39
2023-09-04T18:20:24.707Z,19.01
2023-09-04T18:27:11.836Z,14.40
2023-09-04T18:30:01.997Z,15.47
2023-09-04T18:32:47.847Z,17.96
2023-09-04T18:35:33.854Z,18.76
2023-09-04T18:38:18.996Z,18.55
2023-09-04T18:41:08.896Z,18.02
2023-09-04T18:43:54.598Z,18.25
2023-09-04T18:46:40.221Z,18.14
2023-09-04T18:49:25.379Z,18.18
2023-09-04T18:52:10.820Z,18.02
2023-09-04T18:54:56.419Z,18.22
2023-09-04T18:57:41.889Z,18.19
2023-09-04T19:00:27.170Z,17.59
2023-09-04T19:03:12.810Z,17.87
2023-09-04T19:05:58.357Z,16.76
2023-09-04T19:08:43.978Z,17.84
2023-09-04T19:11:29.442Z,17.71
2023-09-04T19:14:14.888Z,17.02
2023-09-04T19:17:01.046Z,17.86
2023-09-04T19:19:46.672Z,17.52
2023-09-04T19:22:31.894Z,17.11
2023-09-04T19:25:17.645Z,16.74
2023-09-04T19:28:10.723Z,17.54
2023-09-04T19:30:56.463Z,17.50
2023-09-04T19:33:41.954Z,17.61
2023-09-04T19:36:27.618Z,17.56
2023-09-04T19:39:12.983Z,16.84
2023-09-04T19:41:58.473Z,16.80
2023-09-04T19:44:43.725Z,16.77
2023-09-04T19:47:29.555Z,17.05
2023-09-04T19:50:14.871Z,17.21
2023-09-04T19:53:00.246Z,16.63
2023-09-04T19:55:45.899Z,16.62
2023-09-04T19:58:31.386Z,16.87
2023-09-04T20:01:17.118Z,16.45
2023-09-04T20:04:02.506Z,16.73
2023-09-04T20:06:48.206Z,16.44
2023-09-04T20:09:34.759Z,16.75
2023-09-04T20:12:20.197Z,15.78
2023-09-04T20:15:06.216Z,15.62
2023-09-04T20:17:51.933Z,16.12
2023-09-04T20:20:37.274Z,15.15
2023-09-04T20:23:23.150Z,15.74
2023-09-04T20:26:09.340Z,15.52
2023-09-04T20:28:58.182Z,15.89
2023-09-04T20:31:44.295Z,15.74
2023-09-04T20:34:29.723Z,15.16
2023-09-04T20:37:15.494Z,15.28
2023-09-04T20:40:01.107Z,15.05
2023-09-04T20:42:46.742Z,16.24
2023-09-04T20:45:31.915Z,16.30
2023-09-04T20:48:17.175Z,16.03
2023-09-04T20:51:03.268Z,15.61
2023-09-04T20:53:48.561Z,15.60
2023-09-04T20:56:34.114Z,16.21
2023-09-04T20:59:19.302Z,15.02
2023-09-04T21:02:04.960Z,15.39
2023-09-04T21:04:50.343Z,15.44
2023-09-04T21:07:35.748Z,15.32
2023-09-04T21:10:21.436Z,16.06
2023-09-04T21:13:06.684Z,15.32
2023-09-04T21:15:52.966Z,15.07
2023-09-04T21:18:38.668Z,15.86
2023-09-04T21:21:24.047Z,15.38
2023-09-04T21:24:09.582Z,15.23
2023-09-04T21:26:55.306Z,15.35
2023-09-04T21:29:40.864Z,14.94
2023-09-04T21:32:26.543Z,15.37
2023-09-04T21:35:11.970Z,15.32
2023-09-04T21:37:57.601Z,14.90
2023-09-04T21:40:42.972Z,15.27
2023-09-04T21:43:28.627Z,15.47
2023-09-04T21:46:14.198Z,14.68
2023-09-04T21:49:02.078Z,15.26
2023-09-04T21:51:47.438Z,14.60
2023-09-04T21:54:32.802Z,14.72
2023-09-04T21:57:18.155Z,14.82
2023-09-04T22:00:04.087Z,14.84
2023-09-04T22:02:50.925Z,15.05
2023-09-04T22:05:36.366Z,14.68
2023-09-04T22:08:21.281Z,15.25
2023-09-04T22:11:06.764Z,14.54
2023-09-04T22:13:52.217Z,14.30
2023-09-04T22:16:40.379Z,14.30
2023-09-04T22:19:31.581Z,13.99
2023-09-04T22:22:16.827Z,14.72
2023-09-04T22:25:02.432Z,14.15
2023-09-04T22:27:48.146Z,14.64
2023-09-04T22:30:33.470Z,14.04
2023-09-04T22:33:19.034Z,14.52
2023-09-04T22:36:04.130Z,14.71
2023-09-04T22:38:49.984Z,14.07
2023-09-04T22:41:34.892Z,13.81
2023-09-04T22:44:20.507Z,13.86
2023-09-04T22:47:06.069Z,14.00
2023-09-04T22:49:51.328Z,13.97
2023-09-04T22:52:36.355Z,13.93
2023-09-04T22:55:21.682Z,13.82
2023-09-04T22:58:06.789Z,14.40
2023-09-04T23:00:52.325Z,14.25
2023-09-04T23:03:37.727Z,14.13
2023-09-04T23:06:23.520Z,14.24
2023-09-04T23:09:08.623Z,13.44
2023-09-04T23:11:54.253Z,14.17
2023-09-04T23:14:39.705Z,13.89
2023-09-04T23:17:24.954Z,14.08
2023-09-04T23:20:10.668Z,13.90
2023-09-04T23:22:55.936Z,14.02
2023-09-04T23:25:41.330Z,13.76
2023-09-04T23:28:26.974Z,13.85
2023-09-04T23:31:12.269Z,13.78
2023-09-04T23:33:57.836Z,13.98
2023-09-04T23:36:43.932Z,13.88
2023-09-04T23:39:32.473Z,13.85
2023-09-04T23:42:17.816Z,13.65
2023-09-04T23:45:03.214Z,13.78
2023-09-04T23:47:49.747Z,13.70
2023-09-04T23:50:34.969Z,13.13
2023-09-04T23:53:20.438Z,13.31
2023-09-04T23:56:07.350Z,13.37
2023-09-04T23:58:52.826Z,13.51
